createdAt,value
2023-04-16T00:00:56.626Z,6.01
2023-04-16T00:03:59.473Z,5.96
2023-04-16T00:07:01.920Z,6.28
2023-04-16T00:10:04.476Z,6.28
2023-04-16T00:13:06.780Z,6.56
2023-04-16T00:16:09.093Z,6.57
2023-04-16T00:19:11.506Z,6.54
2023-04-16T00:22:13.917Z,6.52
2023-04-16T00:25:16.384Z,6.71
2023-04-16T00:28:18.552Z,6.56
2023-04-16T00:31:31.898Z,6.52
2023-04-16T00:34:34.133Z,6.53
2023-04-16T00:37:36.349Z,6.62
2023-04-16T00:40:38.665Z,6.49
2023-04-16T00:43:40.857Z,6.60
2023-04-16T00:46:43.378Z,6.49
2023-04-16T00:49:45.870Z,6.50
2023-04-16T00:52:49.313Z,6.50
2023-04-16T00:55:51.782Z,6.44
2023-04-16T00:58:55.225Z,6.70
2023-04-16T01:01:57.508Z,6.73
2023-04-16T01:05:00.841Z,6.65
2023-04-16T01:08:03.041Z,6.65
2023-04-16T01:11:05.804Z,6.58
2023-04-16T01:14:08.030Z,6.59
2023-04-16T01:17:10.251Z,6.67
2023-04-16T01:20:12.444Z,6.68
2023-04-16T01:23:15.235Z,6.60
2023-04-16T01:26:17.384Z,6.66
2023-04-16T01:29:19.683Z,6.66
2023-04-16T01:32:22.167Z,6.60
2023-04-16T01:35:24.935Z,6.45
2023-04-16T01:38:27.090Z,6.16
2023-04-16T01:41:30.573Z,5.94
2023-04-16T01:44:32.800Z,5.80
2023-04-16T01:47:35.046Z,5.95
2023-04-16T01:50:37.637Z,5.94
2023-04-16T01:53:39.990Z,6.03
2023-04-16T01:56:42.246Z,5.91
2023-04-16T01:59:44.497Z,5.84
2023-04-16T02:02:47.073Z,5.78
2023-04-16T02:05:49.426Z,5.73
2023-04-16T02:08:51.642Z,5.54
2023-04-16T02:11:53.779Z,5.62
2023-04-16T02:14:55.970Z,5.60
2023-04-16T02:17:58.239Z,5.45
2023-04-16T02:21:00.831Z,5.38
2023-04-16T02:24:03.247Z,5.34
2023-04-16T02:27:05.372Z,5.42
2023-04-16T02:30:08.291Z,5.47
2023-04-16T02:33:11.713Z,5.41
2023-04-16T02:36:13.915Z,5.47
2023-04-16T02:39:16.267Z,5.65
2023-04-16T02:42:18.424Z,5.63
2023-04-16T02:45:21.346Z,5.52
2023-04-16T02:48:23.533Z,5.72
2023-04-16T02:51:26.176Z,5.50
2023-04-16T02:54:28.378Z,5.28
2023-04-16T02:57:30.547Z,5.36
2023-04-16T03:00:32.731Z,5.34
2023-04-16T03:03:34.935Z,5.11
2023-04-16T03:06:37.091Z,4.89
2023-04-16T03:09:40.447Z,4.91
2023-04-16T03:12:42.664Z,4.90
2023-04-16T03:15:50.794Z,4.75
2023-04-16T03:18:53.087Z,5.12
2023-04-16T03:21:55.247Z,5.22
2023-04-16T03:24:57.446Z,5.39
2023-04-16T03:27:59.667Z,5.40
2023-04-16T03:31:01.962Z,5.32
2023-04-16T03:34:04.188Z,4.78
2023-04-16T03:37:06.432Z,4.83
2023-04-16T03:40:08.982Z,5.08
2023-04-16T03:43:11.360Z,5.16
2023-04-16T03:46:13.560Z,5.21
2023-04-16T03:49:15.862Z,5.17
2023-04-16T03:52:18.108Z,5.05
2023-04-16T03:55:20.313Z,5.12
2023-04-16T03:58:22.473Z,4.96
2023-04-16T04:01:24.641Z,4.82
2023-04-16T04:04:27.336Z,4.76
2023-04-16T04:07:29.573Z,4.66
2023-04-16T04:10:33.054Z,4.34
2023-04-16T04:13:35.344Z,4.65
2023-04-16T04:16:37.584Z,4.87
2023-04-16T04:19:47.204Z,4.92
2023-04-16T04:22:56.701Z,5.24
2023-04-16T04:25:59.496Z,4.70
2023-04-16T04:29:01.819Z,4.34
2023-04-16T04:32:04.271Z,4.56
2023-04-16T04:35:07.021Z,4.71
2023-04-16T04:38:09.190Z,5.03
2023-04-16T04:41:11.455Z,5.30
2023-04-16T04:44:13.663Z,5.20
2023-04-16T04:47:16.025Z,5.22
2023-04-16T04:50:18.228Z,5.54
2023-04-16T04:53:20.760Z,5.92
2023-04-16T04:56:23.010Z,6.16
2023-04-16T04:59:25.705Z,6.49
2023-04-16T05:02:27.993Z,6.28
2023-04-16T05:05:30.474Z,6.43
2023-04-16T05:08:32.632Z,6.28
2023-04-16T05:11:35.092Z,6.01
2023-04-16T05:14:37.278Z,5.52
2023-04-16T05:17:39.475Z,5.46
2023-04-16T05:20:41.774Z,5.62
2023-04-16T05:23:43.981Z,5.16
2023-04-16T05:26:46.179Z,5.02
2023-04-16T05:29:48.382Z,4.88
2023-04-16T05:32:50.770Z,5.04
2023-04-16T05:35:53.021Z,5.26
2023-04-16T05:38:55.273Z,5.42
2023-04-16T05:41:57.459Z,5.58
2023-04-16T05:44:59.656Z,5.83
2023-04-16T05:48:01.881Z,6.17
2023-04-16T05:51:04.351Z,6.26
2023-04-16T05:54:06.562Z,6.16
2023-04-16T05:57:08.989Z,5.86
2023-04-16T06:00:11.410Z,5.89
2023-04-16T06:03:13.706Z,6.14
2023-04-16T06:06:16.092Z,6.00
2023-04-16T06:09:19.033Z,6.02
2023-04-16T06:12:21.205Z,6.18
2023-04-16T06:15:23.413Z,6.11
2023-04-16T06:18:25.641Z,6.40
2023-04-16T06:21:28.744Z,6.45
2023-04-16T06:24:31.120Z,6.66
2023-04-16T06:27:33.308Z,6.88
2023-04-16T06:30:35.654Z,6.75
2023-04-16T06:33:37.809Z,6.87
2023-04-16T06:36:40.024Z,7.07
2023-04-16T06:39:42.284Z,6.89
2023-04-16T06:42:45.671Z,7.30
2023-04-16T06:45:48.053Z,7.38
2023-04-16T06:48:50.561Z,7.57
2023-04-16T06:51:52.836Z,7.75
2023-04-16T06:54:55.087Z,7.69
2023-04-16T06:57:57.258Z,7.82
2023-04-16T07:00:59.549Z,7.81
2023-04-16T07:04:02.311Z,7.76
2023-04-16T07:07:04.746Z,8.12
2023-04-16T07:10:08.215Z,8.25
2023-04-16T07:13:10.487Z,8.16
2023-04-16T07:16:12.693Z,8.38
2023-04-16T07:19:14.899Z,8.46
2023-04-16T07:22:17.111Z,8.43
2023-04-16T07:25:19.357Z,8.62
2023-04-16T07:28:21.568Z,8.76
2023-04-16T07:31:23.790Z,9.03
2023-04-16T07:34:26.097Z,9.26
2023-04-16T07:37:28.319Z,9.63
2023-04-16T07:40:30.737Z,9.74
2023-04-16T07:43:32.922Z,9.82
2023-04-16T07:46:45.661Z,9.73
2023-04-16T07:49:50.680Z,9.96
2023-04-16T07:52:52.900Z,10.15
2023-04-16T07:55:55.147Z,10.20
2023-04-16T07:58:59.469Z,10.08
2023-04-16T08:02:06.336Z,9.99
2023-04-16T08:05:08.925Z,10.12
2023-04-16T08:08:11.202Z,10.17
2023-04-16T08:11:13.473Z,10.05
2023-04-16T08:14:16.946Z,10.05
2023-04-16T08:17:19.211Z,10.29
2023-04-16T08:20:21.432Z,10.57
2023-04-16T08:23:23.642Z,10.59
2023-04-16T08:26:26.319Z,10.63
2023-04-16T08:29:28.514Z,10.80
2023-04-16T08:32:30.663Z,11.17
2023-04-16T08:35:32.940Z,11.32
2023-04-16T08:38:35.144Z,11.26
2023-04-16T08:41:39.294Z,11.39
2023-04-16T08:44:44.257Z,11.39
2023-04-16T08:47:48.541Z,11.52
2023-04-16T08:50:54.972Z,11.69
2023-04-16T08:54:05.215Z,11.81
2023-04-16T08:57:10.712Z,11.84
2023-04-16T09:00:13.898Z,12.19
2023-04-16T09:03:16.372Z,12.50
2023-04-16T09:06:18.696Z,12.44
2023-04-16T09:09:22.382Z,12.79
2023-04-16T09:12:24.687Z,12.92
2023-04-16T09:15:27.303Z,12.94
2023-04-16T09:18:30.789Z,12.89
2023-04-16T09:21:33.056Z,12.98
2023-04-16T09:24:35.503Z,12.96
2023-04-16T09:27:37.872Z,13.21
2023-04-16T09:30:40.152Z,13.36
2023-04-16T09:33:43.702Z,13.63
2023-04-16T09:36:45.898Z,13.74
2023-04-16T09:40:02.495Z,13.79
2023-04-16T09:43:19.192Z,13.59
2023-04-16T09:46:21.709Z,13.50
2023-04-16T09:49:23.916Z,13.79
2023-04-16T09:52:26.081Z,13.98
2023-04-16T09:55:28.324Z,13.79
2023-04-16T09:58:30.678Z,13.62
2023-04-16T10:01:33.022Z,13.67
2023-04-16T10:04:52.130Z,13.89
2023-04-16T10:08:00.681Z,14.00
2023-04-16T10:11:02.986Z,14.10
2023-04-16T10:14:05.408Z,13.95
2023-04-16T10:17:11.628Z,14.14
2023-04-16T10:20:16.710Z,14.32
2023-04-16T10:23:22.531Z,14.25
2023-04-16T10:26:24.853Z,14.38
2023-04-16T10:29:28.254Z,14.37
2023-04-16T10:32:31.498Z,14.44
2023-04-16T10:35:33.723Z,14.63
2023-04-16T10:38:40.123Z,14.46
2023-04-16T10:41:43.062Z,14.45
2023-04-16T10:44:46.184Z,14.17
2023-04-16T10:47:48.438Z,14.16
2023-04-16T10:50:57.656Z,14.39
2023-04-16T10:54:24.631Z,14.57
2023-04-16T10:57:29.368Z,14.48
2023-04-16T11:00:31.553Z,14.31
2023-04-16T11:03:34.073Z,14.37
2023-04-16T11:06:37.520Z,14.43
2023-04-16T11:09:53.319Z,14.73
2023-04-16T11:12:56.217Z,14.82
2023-04-16T11:15:58.910Z,14.95
2023-04-16T11:19:01.332Z,15.25
2023-04-16T11:22:04.091Z,15.24
2023-04-16T11:25:06.526Z,15.10
2023-04-16T11:28:08.732Z,14.74
2023-04-16T11:31:12.656Z,15.02
2023-04-16T11:34:15.562Z,14.84
2023-04-16T11:37:38.761Z,14.92
2023-04-16T11:40:42.339Z,14.95
2023-04-16T11:43:44.703Z,15.02
2023-04-16T11:46:47.126Z,15.29
2023-04-16T11:49:49.453Z,15.23
2023-04-16T11:52:53.424Z,14.95
2023-04-16T11:55:55.792Z,14.94
2023-04-16T11:59:17.475Z,14.93
2023-04-16T12:02:38.057Z,14.99
2023-04-16T12:05:40.767Z,15.08
2023-04-16T12:08:42.998Z,15.39
2023-04-16T12:11:45.304Z,15.52
2023-04-16T12:14:51.299Z,15.25
2023-04-16T12:18:09.564Z,15.14
2023-04-16T12:21:12.350Z,15.13
2023-04-16T12:24:17.282Z,15.38
2023-04-16T12:27:19.481Z,15.62
2023-04-16T12:30:23.487Z,15.54
2023-04-16T12:33:27.699Z,15.39
2023-04-16T12:36:29.874Z,15.57
2023-04-16T12:39:32.034Z,15.75
2023-04-16T12:42:37.452Z,15.79
2023-04-16T12:45:40.456Z,15.79
2023-04-16T12:48:43.624Z,15.88
2023-04-16T12:51:46.879Z,15.91
2023-04-16T12:54:49.009Z,15.97
2023-04-16T12:57:52.897Z,15.88
2023-04-16T13:00:55.065Z,16.03
2023-04-16T13:03:57.578Z,15.89
2023-04-16T13:07:00.616Z,16.22
2023-04-16T13:10:02.983Z,15.96
2023-04-16T13:13:06.067Z,16.12
2023-04-16T13:16:08.821Z,15.91
2023-04-16T13:19:11.233Z,16.14
2023-04-16T13:22:13.876Z,15.97
2023-04-16T13:25:16.224Z,15.93
2023-04-16T13:28:18.409Z,15.85
2023-04-16T13:31:22.209Z,16.08
2023-04-16T13:34:24.717Z,16.30
2023-04-16T13:37:27.040Z,16.43
2023-04-16T13:40:29.373Z,16.58
2023-04-16T13:43:32.817Z,16.38
2023-04-16T13:46:35.267Z,16.21
2023-04-16T13:49:37.677Z,16.10
2023-04-16T13:52:42.120Z,16.09
2023-04-16T13:55:44.542Z,16.39
2023-04-16T13:58:46.908Z,16.56
2023-04-16T14:01:49.525Z,16.46
2023-04-16T14:04:51.893Z,16.73
2023-04-16T14:07:54.266Z,16.75
2023-04-16T14:10:57.102Z,16.63
2023-04-16T14:13:59.488Z,16.57
2023-04-16T14:17:03.263Z,16.19
2023-04-16T14:20:06.995Z,16.07
2023-04-16T14:23:09.236Z,15.92
2023-04-16T14:26:11.508Z,15.86
2023-04-16T14:29:13.748Z,15.95
2023-04-16T14:32:16.616Z,16.02
2023-04-16T14:35:18.888Z,15.94
2023-04-16T14:38:21.362Z,16.03
2023-04-16T14:41:23.847Z,16.15
2023-04-16T14:44:26.067Z,16.28
2023-04-16T14:47:28.800Z,16.59
2023-04-16T14:50:31.030Z,16.59
2023-04-16T14:53:34.451Z,16.78
2023-04-16T14:56:36.596Z,16.57
2023-04-16T14:59:38.771Z,16.03
2023-04-16T15:02:42.077Z,16.06
2023-04-16T15:05:44.664Z,16.20
2023-04-16T15:08:46.889Z,16.13
2023-04-16T15:11:49.030Z,16.21
2023-04-16T15:14:51.365Z,16.14
2023-04-16T15:17:53.638Z,16.28
2023-04-16T15:20:56.858Z,16.28
2023-04-16T15:23:59.252Z,16.23
2023-04-16T15:27:02.490Z,16.20
2023-04-16T15:30:05.215Z,16.22
2023-04-16T15:33:12.173Z,16.28
2023-04-16T15:36:14.843Z,15.90
2023-04-16T15:39:17.447Z,15.80
2023-04-16T15:42:19.724Z,15.80
2023-04-16T15:45:22.496Z,15.87
2023-04-16T15:48:25.031Z,15.85
2023-04-16T15:51:29.368Z,15.88
2023-04-16T15:54:32.109Z,15.98
2023-04-16T15:57:34.344Z,15.96
2023-04-16T16:00:36.567Z,15.85
2023-04-16T16:03:39.030Z,15.74
2023-04-16T16:06:41.867Z,15.51
2023-04-16T16:09:44.352Z,15.48
2023-04-16T16:12:46.930Z,15.49
2023-04-16T16:15:50.655Z,15.35
2023-04-16T16:18:53.197Z,15.37
2023-04-16T16:21:55.922Z,15.33
2023-04-16T16:24:58.461Z,15.32
2023-04-16T16:28:01.550Z,15.28
2023-04-16T16:31:06.198Z,15.19
2023-04-16T16:34:11.129Z,15.17
2023-04-16T16:37:19.449Z,15.14
2023-04-16T16:40:21.960Z,15.19
2023-04-16T16:43:24.340Z,15.18
2023-04-16T16:46:27.317Z,15.12
2023-04-16T16:49:29.690Z,15.14
2023-04-16T16:52:32.281Z,15.11
2023-04-16T16:55:35.563Z,15.14
2023-04-16T16:58:38.019Z,15.03
2023-04-16T17:01:40.496Z,14.99
2023-04-16T17:04:43.168Z,15.03
2023-04-16T17:07:45.834Z,15.03
2023-04-16T17:10:48.692Z,15.03
2023-04-16T17:13:52.169Z,14.94
2023-04-16T17:16:54.644Z,14.94
2023-04-16T17:19:57.281Z,14.91
2023-04-16T17:22:59.795Z,14.99
2023-04-16T17:26:02.247Z,14.91
2023-04-16T17:29:04.768Z,14.75
2023-04-16T17:32:07.389Z,14.74
2023-04-16T17:35:10.258Z,14.63
2023-04-16T17:38:12.725Z,14.59
2023-04-16T17:41:15.799Z,14.50
2023-04-16T17:44:18.957Z,14.39
2023-04-16T17:47:21.211Z,14.42
2023-04-16T17:50:24.325Z,14.44
2023-04-16T17:53:26.874Z,14.42
2023-04-16T17:56:29.305Z,14.55
2023-04-16T17:59:31.508Z,14.43
2023-04-16T18:02:34.008Z,14.33
2023-04-16T18:05:36.949Z,14.22
2023-04-16T18:08:39.392Z,14.15
2023-04-16T18:11:41.917Z,14.08
2023-04-16T18:14:44.758Z,14.08
2023-04-16T18:17:47.465Z,13.90
2023-04-16T18:20:52.327Z,13.83
2023-04-16T18:23:54.711Z,13.86
2023-04-16T18:26:57.168Z,13.86
2023-04-16T18:29:59.537Z,13.81
2023-04-16T18:36:07.761Z,13.83
2023-04-16T18:39:10.704Z,13.75
2023-04-16T18:42:13.196Z,13.81
2023-04-16T18:45:21.147Z,13.69
2023-04-16T18:48:24.506Z,13.68
2023-04-16T18:51:28.297Z,13.69
2023-04-16T18:54:30.791Z,13.61
2023-04-16T18:57:33.044Z,13.41
2023-04-16T19:00:35.585Z,13.32
2023-04-16T19:03:38.576Z,13.34
2023-04-16T19:06:41.219Z,13.32
2023-04-16T19:09:43.780Z,13.28
2023-04-16T19:12:46.342Z,13.32
2023-04-16T19:15:49.391Z,13.26
2023-04-16T19:18:51.578Z,13.42
2023-04-16T19:21:54.246Z,13.29
2023-04-16T19:24:56.630Z,13.26
2023-04-16T19:27:59.267Z,13.22
2023-04-16T19:31:01.712Z,13.09
2023-04-16T19:34:03.950Z,13.06
2023-04-16T19:37:06.432Z,12.84
2023-04-16T19:40:10.000Z,12.78
2023-04-16T19:43:12.705Z,12.87
2023-04-16T19:46:15.507Z,12.75
2023-04-16T19:49:18.183Z,12.75
2023-04-16T19:52:20.848Z,12.60
2023-04-16T19:55:23.142Z,12.60
2023-04-16T19:58:25.907Z,12.54
2023-04-16T20:01:28.458Z,12.42
2023-04-16T20:04:31.023Z,12.45
2023-04-16T20:07:33.467Z,12.43
2023-04-16T20:10:36.144Z,12.35
2023-04-16T20:13:38.898Z,12.42
2023-04-16T20:16:43.629Z,12.45
2023-04-16T20:19:47.531Z,12.40
2023-04-16T20:22:50.017Z,12.37
2023-04-16T20:25:52.534Z,12.38
2023-04-16T20:28:55.056Z,12.41
2023-04-16T20:31:57.257Z,12.38
2023-04-16T20:34:59.909Z,12.41
2023-04-16T20:38:02.097Z,12.38
2023-04-16T20:41:10.156Z,12.39
2023-04-16T20:44:18.807Z,12.50
2023-04-16T20:47:22.551Z,12.58
2023-04-16T20:50:25.471Z,12.51
2023-04-16T20:53:28.044Z,12.34
2023-04-16T20:56:30.224Z,12.31
2023-04-16T20:59:32.435Z,12.27
2023-04-16T21:02:34.846Z,12.12
2023-04-16T21:05:37.176Z,12.13
2023-04-16T21:08:39.419Z,12.15
2023-04-16T21:11:41.628Z,12.13
2023-04-16T21:14:43.821Z,12.24
2023-04-16T21:17:46.053Z,12.22
2023-04-16T21:20:48.286Z,12.18
2023-04-16T21:23:51.078Z,12.26
2023-04-16T21:26:53.264Z,12.27
2023-04-16T21:29:55.612Z,12.29
2023-04-16T21:32:57.816Z,12.35
2023-04-16T21:36:00.132Z,12.37
2023-04-16T21:39:02.397Z,12.32
2023-04-16T21:42:04.730Z,12.13
2023-04-16T21:45:10.510Z,12.18
2023-04-16T21:48:12.820Z,12.21
2023-04-16T21:51:15.794Z,12.18
2023-04-16T21:54:20.158Z,11.96
2023-04-16T21:57:22.392Z,11.94
2023-04-16T22:00:24.827Z,11.97
2023-04-16T22:03:28.251Z,12.06
2023-04-16T22:06:30.561Z,12.06
2023-04-16T22:09:32.747Z,11.99
2023-04-16T22:12:37.897Z,11.99
2023-04-16T22:15:40.488Z,11.94
2023-04-16T22:18:42.882Z,11.98
2023-04-16T22:21:45.596Z,12.05
2023-04-16T22:24:47.785Z,11.94
2023-04-16T22:27:50.010Z,11.98
2023-04-16T22:30:52.247Z,11.98
2023-04-16T22:33:54.473Z,12.02
2023-04-16T22:36:57.009Z,12.02
2023-04-16T22:39:59.269Z,11.95
2023-04-16T22:43:01.456Z,11.93
2023-04-16T22:46:04.911Z,11.93
2023-04-16T22:49:07.183Z,11.92
2023-04-16T22:52:09.310Z,11.89
2023-04-16T22:55:11.521Z,12.01
2023-04-16T22:58:13.703Z,12.05
2023-04-16T23:01:16.952Z,11.85
2023-04-16T23:04:19.202Z,11.95
2023-04-16T23:07:21.408Z,11.97
2023-04-16T23:10:23.570Z,11.92
2023-04-16T23:13:25.804Z,11.97
2023-04-16T23:16:28.727Z,11.88
2023-04-16T23:19:31.770Z,11.93
2023-04-16T23:22:33.993Z,11.87
2023-04-16T23:25:36.228Z,11.92
2023-04-16T23:28:38.417Z,11.88
2023-04-16T23:31:40.696Z,11.86
2023-04-16T23:34:42.895Z,11.80
2023-04-16T23:37:45.164Z,11.88
2023-04-16T23:40:47.412Z,11.76
2023-04-16T23:43:49.610Z,11.76
2023-04-16T23:46:51.824Z,11.81
2023-04-16T23:49:54.064Z,11.70
2023-04-16T23:52:56.267Z,11.81
2023-04-16T23:55:58.547Z,11.80
2023-04-16T23:59:00.805Z,11.81
